Time,TemperatureF,DewpointF,PressureIn,WindDirection,WindDirectionDegrees,WindSpeedMPH,WindSpeedGustMPH,Humidity,HourlyPrecipIn,Conditions,Clouds,dailyrainin,SoftwareType,DateUTC
2013-02-28 00:04:00,39.9,31.3,29.61,South,180,5.8,-999.0,71,-99.99,,,0.00,Acu-Link.com,2013-02-28 05:04:00,
2013-02-28 00:19:00,39.9,31.3,29.60,West,270,6.3,-999.0,71,-99.99,,,0.00,Acu-Link.com,2013-02-28 05:19:00,
2013-02-28 00:34:00,39.7,31.8,29.60,SSW,202,1.7,-999.0,73,-99.99,,,0.00,Acu-Link.com,2013-02-28 05:34:00,
2013-02-28 00:49:00,39.0,32.4,29.60,South,180,4.2,-999.0,77,-99.99,,,0.00,Acu-Link.com,2013-02-28 05:49:00,
2013-02-28 01:04:00,38.7,32.1,29.60,SSW,202,1.7,-999.0,77,-99.99,,,0.00,Acu-Link.com,2013-02-28 06:04:00,
2013-02-28 01:20:00,38.8,32.2,29.59,WSW,247,2.7,-999.0,77,-99.99,,,0.00,Acu-Link.com,2013-02-28 06:20:00,
2013-02-28 01:35:00,39.0,32.4,29.60,West,270,3.7,-999.0,77,-99.99,,,0.00,Acu-Link.com,2013-02-28 06:35:00,
2013-02-28 01:50:00,37.6,31.1,29.60,West,270,2.7,-999.0,77,-99.99,,,0.00,Acu-Link.com,2013-02-28 06:50:00,
2013-02-28 02:05:00,37.2,31.0,29.60,SSW,202,4.7,-999.0,78,-99.99,,,0.00,Acu-Link.com,2013-02-28 07:05:00,
2013-02-28 02:21:00,36.9,30.4,29.60,SSE,157,5.8,-999.0,77,-99.99,,,0.00,Acu-Link.com,2013-02-28 07:21:00,
2013-02-28 02:36:00,37.2,30.0,29.60,West,270,7.3,-999.0,75,-99.99,,,0.00,Acu-Link.com,2013-02-28 07:36:00,
2013-02-28 02:51:00,37.2,29.7,29.60,SW,225,1.7,-999.0,74,-99.99,,,0.00,Acu-Link.com,2013-02-28 07:51:00,
2013-02-28 03:06:00,37.2,29.4,29.60,West,270,3.2,-999.0,73,-99.99,,,0.00,Acu-Link.com,2013-02-28 08:06:00,
2013-02-28 03:21:00,37.0,28.5,29.61,WSW,247,3.2,-999.0,71,-99.99,,,0.00,Acu-Link.com,2013-02-28 08:21:00,
2013-02-28 03:36:00,37.2,28.0,29.60,West,270,2.2,-999.0,69,-99.99,,,0.00,Acu-Link.com,2013-02-28 08:36:00,
2013-02-28 03:52:00,37.2,28.3,29.60,South,180,1.7,-999.0,70,-99.99,,,0.00,Acu-Link.com,2013-02-28 08:52:00,
2013-02-28 04:18:00,37.2,28.7,29.60,West,270,1.1,-999.0,71,-99.99,,,0.00,Acu-Link.com,2013-02-28 09:18:00,
2013-02-28 04:34:00,37.2,29.4,29.59,SW,225,2.2,-999.0,73,-99.99,,,0.00,Acu-Link.com,2013-02-28 09:34:00,
2013-02-28 04:49:00,37.2,29.0,29.59,West,270,2.2,-999.0,72,-99.99,,,0.00,Acu-Link.com,2013-02-28 09:49:00,
2013-02-28 05:04:00,37.2,29.0,29.59,WSW,247,1.7,-999.0,72,-99.99,,,0.00,Acu-Link.com,2013-02-28 10:04:00,
2013-02-28 05:19:00,37.2,28.3,29.60,South,180,4.2,-999.0,70,-99.99,,,0.00,Acu-Link.com,2013-02-28 10:19:00,
2013-02-28 05:35:00,37.2,28.7,29.61,West,270,3.2,-999.0,71,-99.99,,,0.00,Acu-Link.com,2013-02-28 10:35:00,
2013-02-28 05:50:00,37.2,29.0,29.61,WSW,247,2.2,-999.0,72,-99.99,,,0.00,Acu-Link.com,2013-02-28 10:50:00,
2013-02-28 06:05:00,37.2,28.3,29.62,West,270,5.8,-999.0,70,-99.99,,,0.00,Acu-Link.com,2013-02-28 11:05:00,
2013-02-28 06:20:00,37.2,28.7,29.61,WSW,247,4.2,-999.0,71,-99.99,,,0.00,Acu-Link.com,2013-02-28 11:20:00,
2013-02-28 06:36:00,37.0,28.5,29.62,WNW,292,4.7,-999.0,71,-99.99,,,0.00,Acu-Link.com,2013-02-28 11:36:00,
2013-02-28 06:51:00,36.7,28.5,29.60,SW,225,2.7,-999.0,72,-99.99,,,0.00,Acu-Link.com,2013-02-28 11:51:00,
2013-02-28 07:06:00,36.9,29.1,29.61,West,270,2.2,-999.0,73,-99.99,,,0.00,Acu-Link.com,2013-02-28 12:06:00,
2013-02-28 07:22:00,36.7,29.5,29.61,SSW,202,2.2,-999.0,75,-99.99,,,0.00,Acu-Link.com,2013-02-28 12:22:00,
2013-02-28 07:37:00,36.7,29.9,29.61,SW,225,4.7,-999.0,76,-99.99,,,0.00,Acu-Link.com,2013-02-28 12:37:00,
2013-02-28 07:52:00,36.7,30.2,29.61,SSW,202,2.2,-999.0,77,-99.99,,,0.00,Acu-Link.com,2013-02-28 12:52:00,
2013-02-28 08:07:00,36.9,30.4,29.62,SW,225,1.7,-999.0,77,-99.99,,,0.00,Acu-Link.com,2013-02-28 13:07:00,
2013-02-28 08:23:00,36.9,30.7,29.63,South,180,2.2,-999.0,78,-99.99,,,0.00,Acu-Link.com,2013-02-28 13:23:00,
2013-02-28 08:38:00,36.7,30.8,29.65,WSW,247,2.7,-999.0,79,-99.99,,,0.00,Acu-Link.com,2013-02-28 13:38:00,
2013-02-28 08:53:00,35.4,31.3,29.65,NW,315,1.7,-999.0,85,-99.99,,,0.00,Acu-Link.com,2013-02-28 13:53:00,
2013-02-28 09:08:00,35.4,31.6,29.66,SSW,202,4.7,-999.0,86,-99.99,,,0.00,Acu-Link.com,2013-02-28 14:08:00,
2013-02-28 09:23:00,35.4,31.3,29.67,WSW,247,5.3,-999.0,85,-99.99,,,0.00,Acu-Link.com,2013-02-28 14:23:00,
2013-02-28 09:38:00,35.4,31.3,29.67,West,270,2.2,-999.0,85,-99.99,,,0.00,Acu-Link.com,2013-02-28 14:38:00,
2013-02-28 09:53:00,36.5,31.8,29.67,South,180,2.2,-999.0,83,-99.99,,,0.00,Acu-Link.com,2013-02-28 14:53:00,
2013-02-28 10:09:00,37.8,31.6,29.67,SW,225,6.3,-999.0,78,-99.99,,,0.00,Acu-Link.com,2013-02-28 15:09:00,
2013-02-28 10:24:00,39.2,31.6,29.68,South,180,1.7,-999.0,74,-99.99,,,0.00,Acu-Link.com,2013-02-28 15:24:00,
2013-02-28 10:39:00,39.2,29.2,29.68,NNW,337,1.7,-999.0,67,-99.99,,,0.00,Acu-Link.com,2013-02-28 15:39:00,
2013-02-28 10:54:00,41.0,28.6,29.68,SW,225,4.7,-999.0,61,-99.99,,,0.00,Acu-Link.com,2013-02-28 15:54:00,
2013-02-28 11:10:00,40.1,27.3,29.69,West,270,5.3,-999.0,60,-99.99,,,0.00,Acu-Link.com,2013-02-28 16:10:00,
2013-02-28 11:25:00,41.0,26.5,29.69,West,270,8.3,-999.0,56,-99.99,,,0.00,Acu-Link.com,2013-02-28 16:25:00,
2013-02-28 11:40:00,39.9,26.8,29.69,South,180,3.7,-999.0,59,-99.99,,,0.00,Acu-Link.com,2013-02-28 16:40:00,
2013-02-28 11:55:00,40.5,26.1,29.70,West,270,4.2,-999.0,56,-99.99,,,0.00,Acu-Link.com,2013-02-28 16:55:00,
2013-02-28 12:10:00,39.9,27.2,29.70,West,270,6.8,-999.0,60,-99.99,,,0.00,Acu-Link.com,2013-02-28 17:10:00,
2013-02-28 12:26:00,40.1,26.5,29.70,West,270,5.3,-999.0,58,-99.99,,,0.00,Acu-Link.com,2013-02-28 17:26:00,
2013-02-28 12:41:00,39.9,27.6,29.70,ESE,112,3.2,-999.0,61,-99.99,,,0.00,Acu-Link.com,2013-02-28 17:41:00,
2013-02-28 12:56:00,41.2,26.7,29.71,WSW,247,2.7,-999.0,56,-99.99,,,0.00,Acu-Link.com,2013-02-28 17:56:00,
2013-02-28 13:11:00,41.5,26.6,29.69,SSW,202,2.2,-999.0,55,-99.99,,,0.00,Acu-Link.com,2013-02-28 18:11:00,
2013-02-28 13:26:00,41.2,25.8,29.69,SE,135,2.7,-999.0,54,-99.99,,,0.00,Acu-Link.com,2013-02-28 18:26:00,
2013-02-28 13:41:00,41.5,25.2,29.70,West,270,5.8,-999.0,52,-99.99,,,0.00,Acu-Link.com,2013-02-28 18:41:00,
2013-02-28 13:57:00,41.4,25.6,29.68,East,90,4.2,-999.0,53,-99.99,,,0.00,Acu-Link.com,2013-02-28 18:57:00,
2013-02-28 14:12:00,40.6,24.4,29.68,NW,315,6.3,-999.0,52,-99.99,,,0.00,Acu-Link.com,2013-02-28 19:12:00,
2013-02-28 14:27:00,39.7,24.9,29.69,SSW,202,2.7,-999.0,55,-99.99,,,0.00,Acu-Link.com,2013-02-28 19:27:00,
2013-02-28 14:42:00,40.5,25.2,29.69,WNW,292,4.7,-999.0,54,-99.99,,,0.00,Acu-Link.com,2013-02-28 19:42:00,
2013-02-28 14:57:00,41.0,25.2,29.69,West,270,2.2,-999.0,53,-99.99,,,0.00,Acu-Link.com,2013-02-28 19:57:00,
2013-02-28 15:13:00,42.1,26.7,29.70,West,270,4.2,-999.0,54,-99.99,,,0.00,Acu-Link.com,2013-02-28 20:13:00,
2013-02-28 15:28:00,40.5,26.1,29.72,West,270,1.7,-999.0,56,-99.99,,,0.00,Acu-Link.com,2013-02-28 20:28:00,
2013-02-28 15:43:00,40.3,25.0,29.70,WSW,247,4.7,-999.0,54,-99.99,,,0.00,Acu-Link.com,2013-02-28 20:43:00,
2013-02-28 15:58:00,40.1,25.2,29.72,SW,225,5.3,-999.0,55,-99.99,,,0.00,Acu-Link.com,2013-02-28 20:58:00,
2013-02-28 16:13:00,39.7,24.9,29.71,SSW,202,2.7,-999.0,55,-99.99,,,0.00,Acu-Link.com,2013-02-28 21:13:00,
2013-02-28 16:28:00,39.6,25.2,29.72,WSW,247,3.7,-999.0,56,-99.99,,,0.00,Acu-Link.com,2013-02-28 21:28:00,
2013-02-28 16:43:00,39.4,25.5,29.72,WSW,247,4.2,-999.0,57,-99.99,,,0.00,Acu-Link.com,2013-02-28 21:43:00,
2013-02-28 16:59:00,39.4,25.5,29.73,West,270,4.2,-999.0,57,-99.99,,,0.00,Acu-Link.com,2013-02-28 21:59:00,
2013-02-28 17:14:00,38.8,25.3,29.73,WSW,247,2.7,-999.0,58,-99.99,,,0.00,Acu-Link.com,2013-02-28 22:14:00,
2013-02-28 17:29:00,38.7,25.6,29.74,WSW,247,3.7,-999.0,59,-99.99,,,0.00,Acu-Link.com,2013-02-28 22:29:00,
2013-02-28 17:45:00,38.1,25.5,29.75,WNW,292,2.7,-999.0,60,-99.99,,,0.00,Acu-Link.com,2013-02-28 22:45:00,
2013-02-28 18:00:00,37.8,26.4,29.75,West,270,2.7,-999.0,63,-99.99,,,0.00,Acu-Link.com,2013-02-28 23:00:00,
2013-02-28 18:15:00,37.4,25.6,29.75,West,270,3.7,-999.0,62,-99.99,,,0.00,Acu-Link.com,2013-02-28 23:15:00,
2013-02-28 18:31:00,37.2,26.2,29.76,West,270,2.7,-999.0,64,-99.99,,,0.00,Acu-Link.com,2013-02-28 23:31:00,
2013-02-28 18:46:00,36.9,26.3,29.76,NW,315,2.2,-999.0,65,-99.99,,,0.00,Acu-Link.com,2013-02-28 23:46:00,
2013-02-28 19:01:00,36.9,26.3,29.76,SW,225,2.2,-999.0,65,-99.99,,,0.00,Acu-Link.com,2013-03-01 00:01:00,
2013-02-28 19:16:00,36.7,26.4,29.76,SSW,202,5.3,-999.0,66,-99.99,,,0.00,Acu-Link.com,2013-03-01 00:16:00,
2013-02-28 19:32:00,36.5,27.0,29.76,West,270,2.7,-999.0,68,-99.99,,,0.00,Acu-Link.com,2013-03-01 00:32:00,
2013-02-28 19:47:00,36.3,26.8,29.76,WSW,247,4.2,-999.0,68,-99.99,,,0.00,Acu-Link.com,2013-03-01 00:47:00,
2013-02-28 20:02:00,36.3,26.8,29.76,West,270,4.7,-999.0,68,-99.99,,,0.00,Acu-Link.com,2013-03-01 01:02:00,
2013-02-28 20:17:00,36.1,26.9,29.76,SW,225,2.7,-999.0,69,-99.99,,,0.00,Acu-Link.com,2013-03-01 01:17:00,
2013-02-28 20:33:00,36.1,26.6,29.76,ENE,67,2.7,-999.0,68,-99.99,,,0.00,Acu-Link.com,2013-03-01 01:33:00,
2013-02-28 20:48:00,36.1,27.3,29.77,WNW,292,4.2,-999.0,70,-99.99,,,0.00,Acu-Link.com,2013-03-01 01:48:00,
2013-02-28 21:03:00,36.1,27.3,29.77,WSW,247,0.0,-999.0,70,-99.99,,,0.00,Acu-Link.com,2013-03-01 02:03:00,
2013-02-28 21:18:00,36.0,26.8,29.76,West,270,2.7,-999.0,69,-99.99,,,0.00,Acu-Link.com,2013-03-01 02:18:00,
2013-02-28 21:34:00,36.0,27.2,29.77,SSW,202,1.1,-999.0,70,-99.99,,,0.00,Acu-Link.com,2013-03-01 02:34:00,
2013-02-28 21:49:00,36.0,27.2,29.77,NW,315,2.2,-999.0,70,-99.99,,,0.00,Acu-Link.com,2013-03-01 02:49:00,
2013-02-28 22:04:00,36.0,27.5,29.76,West,270,2.2,-999.0,71,-99.99,,,0.00,Acu-Link.com,2013-03-01 03:04:00,
2013-02-28 22:19:00,36.0,27.5,29.77,WNW,292,3.2,-999.0,71,-99.99,,,0.00,Acu-Link.com,2013-03-01 03:19:00,
2013-02-28 22:34:00,36.0,27.9,29.77,West,270,2.7,-999.0,72,-99.99,,,0.00,Acu-Link.com,2013-03-01 03:34:00,
2013-02-28 22:50:00,35.8,27.7,29.77,West,270,2.2,-999.0,72,-99.99,,,0.00,Acu-Link.com,2013-03-01 03:50:00,
2013-02-28 23:05:00,35.8,28.0,29.76,SSE,157,1.1,-999.0,73,-99.99,,,0.00,Acu-Link.com,2013-03-01 04:05:00,
2013-02-28 23:20:00,35.8,28.0,29.77,WSW,247,3.7,-999.0,73,-99.99,,,0.00,Acu-Link.com,2013-03-01 04:20:00,
2013-02-28 23:36:00,35.8,28.0,29.78,WSW,247,1.7,-999.0,73,-99.99,,,0.00,Acu-Link.com,2013-03-01 04:36:00,
2013-02-28 23:51:00,35.6,28.1,29.78,SE,135,3.2,-999.0,74,-99.99,,,0.00,Acu-Link.com,2013-03-01 04:51:00,